Liberty, TX

10:46 PM CST on November 27, 2014 (GMT -0600)
Beautiful Downtown | Change Station
CLOSE
Current Station
Personal Weather Station
Location: Dayton, TX
Elevation: 84 ft
Nearby Weather Stations

Elev 84 ft 30.05 °N, 94.89 °W | Updated 31 minutes ago

Clear
Clear
44.3 °F
Feels Like 44 °F
N
0.0
Wind Variable Wind from NNE
Gusts 0.0 mph

Today
High -- | Low -- °F
--% Chance of Precip.
Yesterday
High -- | Low -- °F
Precip. -- in
6:54 AM 5:19 PM
Waxing Crescent, 36% visible
Pressure 30.43 in
Visibility 7.0 miles
Clouds Clear
Windchill 44 °F
Dew Point 40 °F
Humidity 86%
Rainfall 0.00 in
Snow Depth Not available.
UV 0 out of 12
Pollen 3.40 out of 12
Air Quality Not available.
Flu Activity Not available.
METAR K6R3 280435Z AUTO 00000KT 7SM CLR 04/04 A3043 RMK AO2 T00380036

More Conditions Fewer Conditions

Pressure 30.43 in
Visibility 7.0 miles
Clouds Clear
Windchill 44 °F
Dew Point 40 °F
Humidity 86%
Rainfall 0.00 in
Snow Depth Not available.
UV 0 out of 12
Pollen 3.40 out of 12
Air Quality Not available.
Flu Activity Not available.
METAR K6R3 280435Z AUTO 00000KT 7SM CLR 04/04 A3043 RMK AO2 T00380036

More Conditions Fewer Conditions

10-Day Weather Forecast

Almanac

Astronomy

Nov. 27, 2014 Rise Set
Actual Time
Civil Twilight
Nautical Twilight
Astronomical Twilight
Moon
Length of Visible Light
Length of Day
Tomorrow will be .
, % of the Moon is Illuminated

Today's Extremes

State Highs State Lows

Community

WunderPhotos

Upload Photos

1,774,189 photos uploaded!

WunderBlogs® & News

Nearby

Air Quality

  Air Quality AQ Index Pollutant
Not available.

Snow Depth

Station Depth Elevation

Earthquake Activity

City Distance Mag. Time & Date
Minimum magnitude displayed is 2.5.

Coastal Water Temperatures

Place Temperature

Nearby Weather Stations